sensor_id;sensor_type;location;lat;lon;timestamp;temperature;humidity
14122;DHT22;7139;48.114;11.442;2023-10-31T00:01:31;10.90;99.90
14122;DHT22;7139;48.114;11.442;2023-10-31T00:03:59;10.80;99.90
14122;DHT22;7139;48.114;11.442;2023-10-31T00:06:26;10.80;99.90
14122;DHT22;7139;48.114;11.442;2023-10-31T00:08:53;10.70;99.90
14122;DHT22;7139;48.114;11.442;2023-10-31T00:11:19;10.70;99.90
14122;DHT22;7139;48.114;11.442;2023-10-31T00:13:46;10.70;99.90
14122;DHT22;7139;48.114;11.442;2023-10-31T00:16:13;10.60;99.90
14122;DHT22;7139;48.114;11.442;2023-10-31T00:18:40;10.60;99.90
14122;DHT22;7139;48.114;11.442;2023-10-31T00:21:08;10.60;99.90
14122;DHT22;7139;48.114;11.442;2023-10-31T00:23:42;10.60;99.90
14122;DHT22;7139;48.114;11.442;2023-10-31T00:26:09;10.60;99.90
14122;DHT22;7139;48.114;11.442;2023-10-31T00:28:36;10.60;99.90
14122;DHT22;7139;48.114;11.442;2023-10-31T00:31:03;10.60;99.90
14122;DHT22;7139;48.114;11.442;2023-10-31T00:33:30;10.60;99.90
14122;DHT22;7139;48.114;11.442;2023-10-31T00:35:58;10.60;99.90
14122;DHT22;7139;48.114;11.442;2023-10-31T00:38:26;10.60;99.90
14122;DHT22;7139;48.114;11.442;2023-10-31T00:40:52;10.60;99.90
14122;DHT22;7139;48.114;11.442;2023-10-31T00:43:19;10.60;99.90
14122;DHT22;7139;48.114;11.442;2023-10-31T00:45:46;10.60;99.90
14122;DHT22;7139;48.114;11.442;2023-10-31T00:48:13;10.60;99.90
14122;DHT22;7139;48.114;11.442;2023-10-31T00:50:39;10.60;99.90
14122;DHT22;7139;48.114;11.442;2023-10-31T00:53:07;10.60;99.90
14122;DHT22;7139;48.114;11.442;2023-10-31T00:55:35;10.60;99.90
14122;DHT22;7139;48.114;11.442;2023-10-31T00:58:03;10.50;99.90
14122;DHT22;7139;48.114;11.442;2023-10-31T01:00:29;10.50;99.90
14122;DHT22;7139;48.114;11.442;2023-10-31T01:02:57;10.50;99.90
14122;DHT22;7139;48.114;11.442;2023-10-31T01:05:24;10.50;99.90
14122;DHT22;7139;48.114;11.442;2023-10-31T01:07:52;10.50;99.90
14122;DHT22;7139;48.114;11.442;2023-10-31T01:10:19;10.50;99.90
14122;DHT22;7139;48.114;11.442;2023-10-31T01:12:47;10.50;99.90
14122;DHT22;7139;48.114;11.442;2023-10-31T01:15:14;10.40;99.90
14122;DHT22;7139;48.114;11.442;2023-10-31T01:17:40;10.40;99.90
14122;DHT22;7139;48.114;11.442;2023-10-31T01:20:08;10.40;99.90
14122;DHT22;7139;48.114;11.442;2023-10-31T01:22:35;10.40;99.90
14122;DHT22;7139;48.114;11.442;2023-10-31T01:25:02;10.40;99.90
14122;DHT22;7139;48.114;11.442;2023-10-31T01:27:29;10.30;99.90
14122;DHT22;7139;48.114;11.442;2023-10-31T01:29:57;10.30;99.90
14122;DHT22;7139;48.114;11.442;2023-10-31T01:32:24;10.40;99.90
14122;DHT22;7139;48.114;11.442;2023-10-31T01:34:51;10.40;99.90
14122;DHT22;7139;48.114;11.442;2023-10-31T01:37:17;10.40;99.90
14122;DHT22;7139;48.114;11.442;2023-10-31T01:39:46;10.40;99.90
14122;DHT22;7139;48.114;11.442;2023-10-31T01:42:14;10.40;99.90
14122;DHT22;7139;48.114;11.442;2023-10-31T01:44:41;10.40;99.90
14122;DHT22;7139;48.114;11.442;2023-10-31T01:47:09;10.40;99.90
14122;DHT22;7139;48.114;11.442;2023-10-31T01:49:36;10.50;99.90
14122;DHT22;7139;48.114;11.442;2023-10-31T01:52:03;10.50;99.90
14122;DHT22;7139;48.114;11.442;2023-10-31T01:54:31;10.40;99.90
14122;DHT22;7139;48.114;11.442;2023-10-31T01:56:59;10.40;99.90
14122;DHT22;7139;48.114;11.442;2023-10-31T01:59:27;10.40;99.90
14122;DHT22;7139;48.114;11.442;2023-10-31T02:01:54;10.40;99.90
14122;DHT22;7139;48.114;11.442;2023-10-31T02:04:23;10.30;99.90
14122;DHT22;7139;48.114;11.442;2023-10-31T02:06:50;10.30;99.90
14122;DHT22;7139;48.114;11.442;2023-10-31T02:09:17;10.30;99.90
14122;DHT22;7139;48.114;11.442;2023-10-31T02:11:43;10.30;99.90
14122;DHT22;7139;48.114;11.442;2023-10-31T02:14:10;10.30;99.90
14122;DHT22;7139;48.114;11.442;2023-10-31T02:16:37;10.20;99.90
14122;DHT22;7139;48.114;11.442;2023-10-31T02:19:04;10.20;99.90
14122;DHT22;7139;48.114;11.442;2023-10-31T02:21:33;10.20;99.90
14122;DHT22;7139;48.114;11.442;2023-10-31T02:24:02;10.20;99.90
14122;DHT22;7139;48.114;11.442;2023-10-31T02:26:29;10.20;99.90
14122;DHT22;7139;48.114;11.442;2023-10-31T02:28:56;10.20;99.90
14122;DHT22;7139;48.114;11.442;2023-10-31T02:31:23;10.20;99.90
14122;DHT22;7139;48.114;11.442;2023-10-31T02:33:50;10.20;99.90
14122;DHT22;7139;48.114;11.442;2023-10-31T02:36:17;10.20;99.90
14122;DHT22;7139;48.114;11.442;2023-10-31T02:38:44;10.20;99.90
14122;DHT22;7139;48.114;11.442;2023-10-31T02:41:12;10.20;99.90
14122;DHT22;7139;48.114;11.442;2023-10-31T02:43:39;10.20;99.90
14122;DHT22;7139;48.114;11.442;2023-10-31T02:46:06;10.10;99.90
14122;DHT22;7139;48.114;11.442;2023-10-31T02:48:33;10.10;99.90
14122;DHT22;7139;48.114;11.442;2023-10-31T02:51:04;10.10;99.90
14122;DHT22;7139;48.114;11.442;2023-10-31T02:53:31;10.10;99.90
14122;DHT22;7139;48.114;11.442;2023-10-31T02:55:58;10.10;99.90
14122;DHT22;7139;48.114;11.442;2023-10-31T02:58:26;10.10;99.90
14122;DHT22;7139;48.114;11.442;2023-10-31T03:00:53;10.00;99.90
14122;DHT22;7139;48.114;11.442;2023-10-31T03:03:19;10.00;99.90
14122;DHT22;7139;48.114;11.442;2023-10-31T03:05:46;10.00;99.90
14122;DHT22;7139;48.114;11.442;2023-10-31T03:08:13;10.00;99.90
14122;DHT22;7139;48.114;11.442;2023-10-31T03:10:41;10.10;99.90
14122;DHT22;7139;48.114;11.442;2023-10-31T03:13:07;10.00;99.90
14122;DHT22;7139;48.114;11.442;2023-10-31T03:15:35;10.00;99.90
14122;DHT22;7139;48.114;11.442;2023-10-31T03:18:02;10.00;99.90
14122;DHT22;7139;48.114;11.442;2023-10-31T03:20:29;10.00;99.90
14122;DHT22;7139;48.114;11.442;2023-10-31T03:22:56;10.00;99.90
14122;DHT22;7139;48.114;11.442;2023-10-31T03:25:23;10.00;99.90
14122;DHT22;7139;48.114;11.442;2023-10-31T03:27:50;10.00;99.90
14122;DHT22;7139;48.114;11.442;2023-10-31T03:30:16;10.00;99.90
14122;DHT22;7139;48.114;11.442;2023-10-31T03:32:44;10.10;99.90
14122;DHT22;7139;48.114;11.442;2023-10-31T03:35:11;10.10;99.90
14122;DHT22;7139;48.114;11.442;2023-10-31T03:37:38;10.10;99.90
14122;DHT22;7139;48.114;11.442;2023-10-31T03:40:08;10.00;99.90
14122;DHT22;7139;48.114;11.442;2023-10-31T03:42:34;10.00;99.90
14122;DHT22;7139;48.114;11.442;2023-10-31T03:45:01;10.00;99.90
14122;DHT22;7139;48.114;11.442;2023-10-31T03:47:28;9.90;99.90
14122;DHT22;7139;48.114;11.442;2023-10-31T03:49:56;10.00;99.90
14122;DHT22;7139;48.114;11.442;2023-10-31T03:52:23;10.00;99.90
14122;DHT22;7139;48.114;11.442;2023-10-31T03:54:50;10.00;99.90
14122;DHT22;7139;48.114;11.442;2023-10-31T03:57:16;10.00;99.90
14122;DHT22;7139;48.114;11.442;2023-10-31T03:59:43;9.90;99.90
14122;DHT22;7139;48.114;11.442;2023-10-31T04:02:10;9.90;99.90
14122;DHT22;7139;48.114;11.442;2023-10-31T04:04:37;9.90;99.90
14122;DHT22;7139;48.114;11.442;2023-10-31T04:07:05;9.90;99.90
14122;DHT22;7139;48.114;11.442;2023-10-31T04:09:32;9.90;99.90
14122;DHT22;7139;48.114;11.442;2023-10-31T04:11:59;9.90;99.90
14122;DHT22;7139;48.114;11.442;2023-10-31T04:14:26;9.90;99.90
14122;DHT22;7139;48.114;11.442;2023-10-31T04:16:52;9.90;99.90
14122;DHT22;7139;48.114;11.442;2023-10-31T04:19:19;9.80;99.90
14122;DHT22;7139;48.114;11.442;2023-10-31T04:21:46;9.90;99.90
14122;DHT22;7139;48.114;11.442;2023-10-31T04:24:14;9.90;99.90
14122;DHT22;7139;48.114;11.442;2023-10-31T04:26:41;9.80;99.90
14122;DHT22;7139;48.114;11.442;2023-10-31T04:29:07;9.80;99.90
14122;DHT22;7139;48.114;11.442;2023-10-31T04:31:34;9.80;99.90
14122;DHT22;7139;48.114;11.442;2023-10-31T04:34:01;9.80;99.90
14122;DHT22;7139;48.114;11.442;2023-10-31T04:36:28;9.80;99.90
14122;DHT22;7139;48.114;11.442;2023-10-31T04:38:54;9.80;99.90
14122;DHT22;7139;48.114;11.442;2023-10-31T04:41:22;9.80;99.90
14122;DHT22;7139;48.114;11.442;2023-10-31T04:43:49;9.80;99.90
14122;DHT22;7139;48.114;11.442;2023-10-31T04:46:16;9.80;99.90
14122;DHT22;7139;48.114;11.442;2023-10-31T04:48:43;9.80;99.90
14122;DHT22;7139;48.114;11.442;2023-10-31T04:51:09;9.80;99.90
14122;DHT22;7139;48.114;11.442;2023-10-31T04:53:36;9.90;99.90
14122;DHT22;7139;48.114;11.442;2023-10-31T04:56:03;9.80;99.90
14122;DHT22;7139;48.114;11.442;2023-10-31T04:58:31;9.90;99.90
14122;DHT22;7139;48.114;11.442;2023-10-31T05:00:58;9.90;99.90
14122;DHT22;7139;48.114;11.442;2023-10-31T05:03:25;9.90;99.90
14122;DHT22;7139;48.114;11.442;2023-10-31T05:05:52;9.80;99.90
14122;DHT22;7139;48.114;11.442;2023-10-31T05:08:19;9.90;99.90
14122;DHT22;7139;48.114;11.442;2023-10-31T05:10:45;9.80;99.90
14122;DHT22;7139;48.114;11.442;2023-10-31T05:13:13;9.90;99.90
14122;DHT22;7139;48.114;11.442;2023-10-31T05:15:41;9.90;99.90
14122;DHT22;7139;48.114;11.442;2023-10-31T05:18:07;9.80;99.90
14122;DHT22;7139;48.114;11.442;2023-10-31T05:20:34;9.80;99.90
14122;DHT22;7139;48.114;11.442;2023-10-31T05:23:01;9.80;99.90
14122;DHT22;7139;48.114;11.442;2023-10-31T05:25:28;9.80;99.90
14122;DHT22;7139;48.114;11.442;2023-10-31T05:27:55;9.80;99.90
14122;DHT22;7139;48.114;11.442;2023-10-31T05:30:22;9.80;99.90
14122;DHT22;7139;48.114;11.442;2023-10-31T05:32:50;9.80;99.90
14122;DHT22;7139;48.114;11.442;2023-10-31T05:35:18;9.80;99.90
14122;DHT22;7139;48.114;11.442;2023-10-31T05:37:45;9.80;99.90
14122;DHT22;7139;48.114;11.442;2023-10-31T05:40:13;9.80;99.90
14122;DHT22;7139;48.114;11.442;2023-10-31T05:42:39;9.80;99.90
14122;DHT22;7139;48.114;11.442;2023-10-31T05:45:07;9.80;99.90
14122;DHT22;7139;48.114;11.442;2023-10-31T05:47:33;9.80;99.90
14122;DHT22;7139;48.114;11.442;2023-10-31T05:50:01;9.80;99.90
14122;DHT22;7139;48.114;11.442;2023-10-31T05:52:28;9.80;99.90
14122;DHT22;7139;48.114;11.442;2023-10-31T05:54:55;9.80;99.90
14122;DHT22;7139;48.114;11.442;2023-10-31T05:57:22;9.80;99.90
14122;DHT22;7139;48.114;11.442;2023-10-31T05:59:49;9.80;99.90
14122;DHT22;7139;48.114;11.442;2023-10-31T06:02:16;9.80;99.90
14122;DHT22;7139;48.114;11.442;2023-10-31T06:04:42;9.90;99.90
14122;DHT22;7139;48.114;11.442;2023-10-31T06:07:11;9.90;99.90
14122;DHT22;7139;48.114;11.442;2023-10-31T06:09:38;9.90;99.90
14122;DHT22;7139;48.114;11.442;2023-10-31T06:12:05;9.90;99.90
14122;DHT22;7139;48.114;11.442;2023-10-31T06:14:32;9.80;99.90
14122;DHT22;7139;48.114;11.442;2023-10-31T06:16:58;9.90;99.90
14122;DHT22;7139;48.114;11.442;2023-10-31T06:19:26;9.90;99.90
14122;DHT22;7139;48.114;11.442;2023-10-31T06:21:53;9.90;99.90
14122;DHT22;7139;48.114;11.442;2023-10-31T06:24:21;9.90;99.90
14122;DHT22;7139;48.114;11.442;2023-10-31T06:26:48;9.90;99.90
14122;DHT22;7139;48.114;11.442;2023-10-31T06:29:14;9.90;99.90
14122;DHT22;7139;48.114;11.442;2023-10-31T06:31:41;9.90;99.90
14122;DHT22;7139;48.114;11.442;2023-10-31T06:34:08;9.90;99.90
14122;DHT22;7139;48.114;11.442;2023-10-31T06:36:35;10.00;99.90
14122;DHT22;7139;48.114;11.442;2023-10-31T06:39:01;10.00;99.90
14122;DHT22;7139;48.114;11.442;2023-10-31T06:41:30;10.00;99.90
14122;DHT22;7139;48.114;11.442;2023-10-31T06:43:56;10.00;99.90
14122;DHT22;7139;48.114;11.442;2023-10-31T06:46:23;10.00;99.90
14122;DHT22;7139;48.114;11.442;2023-10-31T06:48:50;10.00;99.90
14122;DHT22;7139;48.114;11.442;2023-10-31T06:51:17;10.00;99.90
14122;DHT22;7139;48.114;11.442;2023-10-31T06:53:43;10.00;99.90
14122;DHT22;7139;48.114;11.442;2023-10-31T06:56:10;9.90;99.90
14122;DHT22;7139;48.114;11.442;2023-10-31T06:58:38;9.90;99.90
14122;DHT22;7139;48.114;11.442;2023-10-31T07:01:05;9.90;99.90
14122;DHT22;7139;48.114;11.442;2023-10-31T07:03:32;9.90;99.90
14122;DHT22;7139;48.114;11.442;2023-10-31T07:05:59;9.80;99.90
14122;DHT22;7139;48.114;11.442;2023-10-31T07:08:25;9.90;99.90
14122;DHT22;7139;48.114;11.442;2023-10-31T07:10:52;9.90;99.90
14122;DHT22;7139;48.114;11.442;2023-10-31T07:13:19;9.90;99.90
14122;DHT22;7139;48.114;11.442;2023-10-31T07:15:47;9.90;99.90
14122;DHT22;7139;48.114;11.442;2023-10-31T07:18:14;10.00;99.90
14122;DHT22;7139;48.114;11.442;2023-10-31T07:20:41;9.90;99.90
14122;DHT22;7139;48.114;11.442;2023-10-31T07:23:07;9.90;99.90
14122;DHT22;7139;48.114;11.442;2023-10-31T07:25:34;9.90;99.90
14122;DHT22;7139;48.114;11.442;2023-10-31T07:28:01;9.90;99.90
14122;DHT22;7139;48.114;11.442;2023-10-31T07:30:28;9.80;99.90
14122;DHT22;7139;48.114;11.442;2023-10-31T07:32:56;9.80;99.90
14122;DHT22;7139;48.114;11.442;2023-10-31T07:35:23;9.80;99.90
14122;DHT22;7139;48.114;11.442;2023-10-31T07:37:50;9.80;99.90
14122;DHT22;7139;48.114;11.442;2023-10-31T07:40:17;9.80;99.90
14122;DHT22;7139;48.114;11.442;2023-10-31T07:42:43;9.80;99.90
14122;DHT22;7139;48.114;11.442;2023-10-31T07:45:10;9.90;99.90
14122;DHT22;7139;48.114;11.442;2023-10-31T07:47:37;9.90;99.90
14122;DHT22;7139;48.114;11.442;2023-10-31T07:50:06;9.90;99.90
14122;DHT22;7139;48.114;11.442;2023-10-31T07:52:32;9.90;99.90
14122;DHT22;7139;48.114;11.442;2023-10-31T07:54:59;9.90;99.90
14122;DHT22;7139;48.114;11.442;2023-10-31T07:57:26;10.00;99.90
14122;DHT22;7139;48.114;11.442;2023-10-31T07:59:53;10.00;99.90
14122;DHT22;7139;48.114;11.442;2023-10-31T08:02:19;10.00;99.90
14122;DHT22;7139;48.114;11.442;2023-10-31T08:04:46;10.00;99.90
14122;DHT22;7139;48.114;11.442;2023-10-31T08:07:14;10.00;99.90
14122;DHT22;7139;48.114;11.442;2023-10-31T08:09:41;10.00;99.90
14122;DHT22;7139;48.114;11.442;2023-10-31T08:12:08;9.90;99.90
14122;DHT22;7139;48.114;11.442;2023-10-31T08:14:35;9.90;99.90
14122;DHT22;7139;48.114;11.442;2023-10-31T08:17:02;9.90;99.90
14122;DHT22;7139;48.114;11.442;2023-10-31T08:19:29;9.80;99.90
14122;DHT22;7139;48.114;11.442;2023-10-31T08:21:56;9.90;99.90
14122;DHT22;7139;48.114;11.442;2023-10-31T08:24:24;9.90;99.90
14122;DHT22;7139;48.114;11.442;2023-10-31T08:26:50;10.00;99.90
14122;DHT22;7139;48.114;11.442;2023-10-31T08:29:17;10.00;99.90
14122;DHT22;7139;48.114;11.442;2023-10-31T08:31:44;10.00;99.90
14122;DHT22;7139;48.114;11.442;2023-10-31T08:34:11;10.00;99.90
14122;DHT22;7139;48.114;11.442;2023-10-31T08:36:37;10.10;99.90
14122;DHT22;7139;48.114;11.442;2023-10-31T08:39:04;10.10;99.90
14122;DHT22;7139;48.114;11.442;2023-10-31T08:41:32;10.10;99.90
14122;DHT22;7139;48.114;11.442;2023-10-31T08:43:59;10.20;99.90
14122;DHT22;7139;48.114;11.442;2023-10-31T08:46:27;10.20;99.90
14122;DHT22;7139;48.114;11.442;2023-10-31T08:48:53;10.30;99.90
14122;DHT22;7139;48.114;11.442;2023-10-31T08:51:20;10.30;99.90
14122;DHT22;7139;48.114;11.442;2023-10-31T08:53:48;10.30;99.90
14122;DHT22;7139;48.114;11.442;2023-10-31T08:56:15;10.20;99.90
14122;DHT22;7139;48.114;11.442;2023-10-31T08:58:43;10.30;99.90
14122;DHT22;7139;48.114;11.442;2023-10-31T09:01:10;10.30;99.90
14122;DHT22;7139;48.114;11.442;2023-10-31T09:03:37;10.30;99.90
14122;DHT22;7139;48.114;11.442;2023-10-31T09:06:04;10.30;99.90
14122;DHT22;7139;48.114;11.442;2023-10-31T09:08:31;10.30;99.90
14122;DHT22;7139;48.114;11.442;2023-10-31T09:10:59;10.30;99.90
14122;DHT22;7139;48.114;11.442;2023-10-31T09:13:27;10.40;99.90
14122;DHT22;7139;48.114;11.442;2023-10-31T09:15:55;10.30;99.90
14122;DHT22;7139;48.114;11.442;2023-10-31T09:18:22;10.30;99.90
14122;DHT22;7139;48.114;11.442;2023-10-31T09:20:49;10.30;99.90
14122;DHT22;7139;48.114;11.442;2023-10-31T09:23:16;10.40;99.90
14122;DHT22;7139;48.114;11.442;2023-10-31T09:25:43;10.30;99.90
14122;DHT22;7139;48.114;11.442;2023-10-31T09:28:10;10.40;99.90
14122;DHT22;7139;48.114;11.442;2023-10-31T09:30:37;10.40;99.90
14122;DHT22;7139;48.114;11.442;2023-10-31T09:33:05;10.40;99.90
14122;DHT22;7139;48.114;11.442;2023-10-31T09:35:34;10.40;99.90
14122;DHT22;7139;48.114;11.442;2023-10-31T09:38:01;10.40;99.90
14122;DHT22;7139;48.114;11.442;2023-10-31T09:40:28;10.40;99.90
14122;DHT22;7139;48.114;11.442;2023-10-31T09:42:55;10.40;99.90
14122;DHT22;7139;48.114;11.442;2023-10-31T09:45:22;10.40;99.90
14122;DHT22;7139;48.114;11.442;2023-10-31T09:47:48;10.40;99.90
14122;DHT22;7139;48.114;11.442;2023-10-31T09:50:16;10.40;99.90
14122;DHT22;7139;48.114;11.442;2023-10-31T09:52:44;10.40;99.90
14122;DHT22;7139;48.114;11.442;2023-10-31T09:55:12;10.40;99.90
14122;DHT22;7139;48.114;11.442;2023-10-31T09:57:38;10.50;99.90
14122;DHT22;7139;48.114;11.442;2023-10-31T10:00:06;10.60;99.90
14122;DHT22;7139;48.114;11.442;2023-10-31T10:02:33;10.60;99.90
14122;DHT22;7139;48.114;11.442;2023-10-31T10:05:00;10.60;99.90
14122;DHT22;7139;48.114;11.442;2023-10-31T10:07:29;10.60;99.90
14122;DHT22;7139;48.114;11.442;2023-10-31T10:09:56;10.60;99.90
14122;DHT22;7139;48.114;11.442;2023-10-31T10:12:24;10.60;99.90
14122;DHT22;7139;48.114;11.442;2023-10-31T10:14:51;10.60;99.90
14122;DHT22;7139;48.114;11.442;2023-10-31T10:17:21;10.60;99.90
14122;DHT22;7139;48.114;11.442;2023-10-31T10:20:05;10.70;99.90
14122;DHT22;7139;48.114;11.442;2023-10-31T10:22:36;10.70;99.90
14122;DHT22;7139;48.114;11.442;2023-10-31T10:25:04;10.70;99.90
14122;DHT22;7139;48.114;11.442;2023-10-31T10:27:31;10.70;99.90
14122;DHT22;7139;48.114;11.442;2023-10-31T10:29:58;10.70;99.90
14122;DHT22;7139;48.114;11.442;2023-10-31T10:32:25;10.80;99.90
14122;DHT22;7139;48.114;11.442;2023-10-31T10:34:51;10.80;99.90
14122;DHT22;7139;48.114;11.442;2023-10-31T10:37:18;10.90;99.90
14122;DHT22;7139;48.114;11.442;2023-10-31T10:39:48;10.90;99.90
14122;DHT22;7139;48.114;11.442;2023-10-31T10:42:17;10.90;99.90
14122;DHT22;7139;48.114;11.442;2023-10-31T10:44:45;11.00;99.90
14122;DHT22;7139;48.114;11.442;2023-10-31T10:47:13;11.10;99.90
14122;DHT22;7139;48.114;11.442;2023-10-31T10:49:42;11.10;99.90
14122;DHT22;7139;48.114;11.442;2023-10-31T10:52:21;11.10;99.90
14122;DHT22;7139;48.114;11.442;2023-10-31T10:54:53;11.10;99.90
14122;DHT22;7139;48.114;11.442;2023-10-31T10:57:28;11.20;99.90
14122;DHT22;7139;48.114;11.442;2023-10-31T11:00:02;11.20;99.90
14122;DHT22;7139;48.114;11.442;2023-10-31T11:02:30;11.20;99.90
14122;DHT22;7139;48.114;11.442;2023-10-31T11:04:57;11.30;99.90
14122;DHT22;7139;48.114;11.442;2023-10-31T11:07:25;11.30;99.90
14122;DHT22;7139;48.114;11.442;2023-10-31T11:09:55;11.30;99.90
14122;DHT22;7139;48.114;11.442;2023-10-31T11:12:23;11.40;99.90
14122;DHT22;7139;48.114;11.442;2023-10-31T11:14:50;11.40;99.90
14122;DHT22;7139;48.114;11.442;2023-10-31T11:17:26;11.40;99.90
14122;DHT22;7139;48.114;11.442;2023-10-31T11:19:55;11.40;99.90
14122;DHT22;7139;48.114;11.442;2023-10-31T11:22:22;11.50;99.90
14122;DHT22;7139;48.114;11.442;2023-10-31T11:24:50;11.50;99.90
14122;DHT22;7139;48.114;11.442;2023-10-31T11:27:18;11.50;99.90
14122;DHT22;7139;48.114;11.442;2023-10-31T11:29:45;11.50;99.90
14122;DHT22;7139;48.114;11.442;2023-10-31T11:32:14;11.50;99.90
14122;DHT22;7139;48.114;11.442;2023-10-31T11:34:42;11.50;99.90
14122;DHT22;7139;48.114;11.442;2023-10-31T11:37:25;11.60;99.90
14122;DHT22;7139;48.114;11.442;2023-10-31T11:40:14;11.70;99.90
14122;DHT22;7139;48.114;11.442;2023-10-31T11:42:43;11.70;99.90
14122;DHT22;7139;48.114;11.442;2023-10-31T11:45:11;11.80;99.90
14122;DHT22;7139;48.114;11.442;2023-10-31T11:47:47;11.80;99.90
14122;DHT22;7139;48.114;11.442;2023-10-31T11:50:15;11.80;99.90
14122;DHT22;7139;48.114;11.442;2023-10-31T11:52:42;11.80;99.90
14122;DHT22;7139;48.114;11.442;2023-10-31T11:55:09;11.90;99.90
14122;DHT22;7139;48.114;11.442;2023-10-31T11:57:37;12.00;99.90
14122;DHT22;7139;48.114;11.442;2023-10-31T12:00:06;12.10;99.90
14122;DHT22;7139;48.114;11.442;2023-10-31T12:02:34;12.10;99.90
14122;DHT22;7139;48.114;11.442;2023-10-31T12:05:11;12.00;99.90
14122;DHT22;7139;48.114;11.442;2023-10-31T12:07:43;12.10;99.90
14122;DHT22;7139;48.114;11.442;2023-10-31T12:10:10;12.10;99.90
14122;DHT22;7139;48.114;11.442;2023-10-31T12:12:37;12.10;99.90
14122;DHT22;7139;48.114;11.442;2023-10-31T12:15:09;12.10;99.90
14122;DHT22;7139;48.114;11.442;2023-10-31T12:17:36;12.10;99.90
14122;DHT22;7139;48.114;11.442;2023-10-31T12:20:04;12.10;99.90
14122;DHT22;7139;48.114;11.442;2023-10-31T12:22:32;12.10;99.90
14122;DHT22;7139;48.114;11.442;2023-10-31T12:25:02;12.20;99.90
14122;DHT22;7139;48.114;11.442;2023-10-31T12:27:42;12.20;99.90
14122;DHT22;7139;48.114;11.442;2023-10-31T12:30:12;12.20;99.90
14122;DHT22;7139;48.114;11.442;2023-10-31T12:32:40;12.20;99.90
14122;DHT22;7139;48.114;11.442;2023-10-31T12:35:08;12.30;99.90
14122;DHT22;7139;48.114;11.442;2023-10-31T12:37:36;12.30;99.90
14122;DHT22;7139;48.114;11.442;2023-10-31T12:40:03;12.10;99.90
14122;DHT22;7139;48.114;11.442;2023-10-31T12:42:31;12.00;99.90
14122;DHT22;7139;48.114;11.442;2023-10-31T12:44:59;11.90;99.90
14122;DHT22;7139;48.114;11.442;2023-10-31T12:47:27;11.80;99.90
14122;DHT22;7139;48.114;11.442;2023-10-31T12:50:08;11.80;99.90
14122;DHT22;7139;48.114;11.442;2023-10-31T12:52:51;11.80;99.90
14122;DHT22;7139;48.114;11.442;2023-10-31T12:55:20;11.80;99.90
14122;DHT22;7139;48.114;11.442;2023-10-31T12:57:48;11.90;99.90
14122;DHT22;7139;48.114;11.442;2023-10-31T13:00:16;11.90;99.90
14122;DHT22;7139;48.114;11.442;2023-10-31T13:02:51;11.90;99.90
14122;DHT22;7139;48.114;11.442;2023-10-31T13:05:18;11.90;99.90
14122;DHT22;7139;48.114;11.442;2023-10-31T13:07:48;11.90;99.90
14122;DHT22;7139;48.114;11.442;2023-10-31T13:10:17;12.00;99.90
14122;DHT22;7139;48.114;11.442;2023-10-31T13:12:44;12.00;99.90
14122;DHT22;7139;48.114;11.442;2023-10-31T13:15:12;12.00;99.90
14122;DHT22;7139;48.114;11.442;2023-10-31T13:17:39;12.00;99.90
14122;DHT22;7139;48.114;11.442;2023-10-31T13:20:14;12.00;99.90
14122;DHT22;7139;48.114;11.442;2023-10-31T13:22:41;12.00;99.90
14122;DHT22;7139;48.114;11.442;2023-10-31T13:25:10;11.90;99.90
14122;DHT22;7139;48.114;11.442;2023-10-31T13:27:37;11.80;99.90
14122;DHT22;7139;48.114;11.442;2023-10-31T13:30:05;11.80;99.90
14122;DHT22;7139;48.114;11.442;2023-10-31T13:32:32;11.70;99.90
14122;DHT22;7139;48.114;11.442;2023-10-31T13:34:59;11.70;99.90
14122;DHT22;7139;48.114;11.442;2023-10-31T13:37:27;11.70;99.90
14122;DHT22;7139;48.114;11.442;2023-10-31T13:39:54;11.70;99.90
14122;DHT22;7139;48.114;11.442;2023-10-31T13:42:21;11.70;99.90
14122;DHT22;7139;48.114;11.442;2023-10-31T13:44:48;11.70;99.90
14122;DHT22;7139;48.114;11.442;2023-10-31T13:47:14;11.70;99.90
14122;DHT22;7139;48.114;11.442;2023-10-31T13:49:41;11.70;99.90
14122;DHT22;7139;48.114;11.442;2023-10-31T13:52:08;11.60;99.90
14122;DHT22;7139;48.114;11.442;2023-10-31T13:54:36;11.70;99.90
14122;DHT22;7139;48.114;11.442;2023-10-31T13:57:03;11.60;99.90
14122;DHT22;7139;48.114;11.442;2023-10-31T13:59:30;11.70;99.90
14122;DHT22;7139;48.114;11.442;2023-10-31T14:01:57;11.70;99.90
14122;DHT22;7139;48.114;11.442;2023-10-31T14:04:24;11.70;99.90
14122;DHT22;7139;48.114;11.442;2023-10-31T14:06:50;11.60;99.90
14122;DHT22;7139;48.114;11.442;2023-10-31T14:09:17;11.60;99.90
14122;DHT22;7139;48.114;11.442;2023-10-31T14:11:45;11.50;99.90
14122;DHT22;7139;48.114;11.442;2023-10-31T14:14:12;11.50;99.90
14122;DHT22;7139;48.114;11.442;2023-10-31T14:16:39;11.40;99.90
14122;DHT22;7139;48.114;11.442;2023-10-31T14:19:07;11.40;99.90
14122;DHT22;7139;48.114;11.442;2023-10-31T14:21:34;11.30;99.90
14122;DHT22;7139;48.114;11.442;2023-10-31T14:24:01;11.30;99.90
14122;DHT22;7139;48.114;11.442;2023-10-31T14:26:29;11.30;99.90
14122;DHT22;7139;48.114;11.442;2023-10-31T14:28:59;11.30;99.90
14122;DHT22;7139;48.114;11.442;2023-10-31T14:31:26;11.30;99.90
14122;DHT22;7139;48.114;11.442;2023-10-31T14:33:53;11.30;99.90
14122;DHT22;7139;48.114;11.442;2023-10-31T14:36:20;11.40;99.90
14122;DHT22;7139;48.114;11.442;2023-10-31T14:38:47;11.40;99.90
14122;DHT22;7139;48.114;11.442;2023-10-31T14:41:14;11.40;99.90
14122;DHT22;7139;48.114;11.442;2023-10-31T14:43:41;11.40;99.90
14122;DHT22;7139;48.114;11.442;2023-10-31T14:46:09;11.40;99.90
14122;DHT22;7139;48.114;11.442;2023-10-31T14:48:36;11.50;99.90
14122;DHT22;7139;48.114;11.442;2023-10-31T14:51:03;11.60;99.90
14122;DHT22;7139;48.114;11.442;2023-10-31T14:53:30;11.70;99.90
14122;DHT22;7139;48.114;11.442;2023-10-31T14:55:56;11.60;99.90
14122;DHT22;7139;48.114;11.442;2023-10-31T14:58:23;11.60;99.90
14122;DHT22;7139;48.114;11.442;2023-10-31T15:00:50;11.50;99.90
14122;DHT22;7139;48.114;11.442;2023-10-31T15:03:18;11.50;99.90
14122;DHT22;7139;48.114;11.442;2023-10-31T15:05:45;11.50;99.90
14122;DHT22;7139;48.114;11.442;2023-10-31T15:08:11;11.50;99.90
14122;DHT22;7139;48.114;11.442;2023-10-31T15:10:38;11.50;99.90
14122;DHT22;7139;48.114;11.442;2023-10-31T15:13:05;11.60;99.90
14122;DHT22;7139;48.114;11.442;2023-10-31T15:15:32;11.60;99.90
14122;DHT22;7139;48.114;11.442;2023-10-31T15:17:58;11.60;99.90
14122;DHT22;7139;48.114;11.442;2023-10-31T15:20:27;11.60;99.90
14122;DHT22;7139;48.114;11.442;2023-10-31T15:22:54;11.60;99.90
14122;DHT22;7139;48.114;11.442;2023-10-31T15:25:21;11.60;99.90
14122;DHT22;7139;48.114;11.442;2023-10-31T15:27:48;11.60;99.90
14122;DHT22;7139;48.114;11.442;2023-10-31T15:30:15;11.80;99.90
14122;DHT22;7139;48.114;11.442;2023-10-31T15:32:41;12.00;99.90
14122;DHT22;7139;48.114;11.442;2023-10-31T15:35:08;11.90;99.90
14122;DHT22;7139;48.114;11.442;2023-10-31T15:37:37;11.80;99.90